Terminal Aerodrome Forecast
Issued by NWS

Home | Current Version | Previous Version | Text Only | Print | Product List | Glossary On
Versions: 1 2 3 4 5 6 7 8 9 10 11 12 13
000
FTUS42 KMLB 041731
TAFFPR
TAF
KFPR 041731Z 0418/0518 34008KT P6SM VCTS SCT035CB SCT250
      TEMPO 0418/0421 2SM TSRA BKN035CB BKN080
     FM050000 05004KT P6SM VCSH SCT035 BKN100
     FM051400 33004KT P6SM FEW025 FEW150 SCT250=

USA.gov is the U.S. government's official web portal to all federal, state and local government web resources and services.